Time;durP1;ratioP1;P1;durP2;ratioP2;P2;SDS_P1;SDS_P2;PMS_P1;PMS_P2;Temp;Humidity;BMP_temperature;BMP_pressure;BME280_temperature;BME280_humidity;BME280_pressure;Samples;Min_cycle;Max_cycle;Signal;HPM_P1;HPM_P2
2023/03/12 00:00:19;;;;;;;16.40;9.10;;;;;;;-0.22;89.12;99661.23;104896;1261;98583;-76
2023/03/12 00:03:25;;;;;;;25.40;11.30;;;;;;;-0.24;89.34;99660.21;104993;1261;98438;-77
2023/03/12 00:06:11;;;;;;;14.20;9.40;;;;;;;-0.24;89.48;99656.89;105136;1265;101328;-76
2023/03/12 00:08:57;;;;;;;17.70;10.40;;;;;;;-0.25;89.65;99656.94;105152;1265;100624;-77
2023/03/12 00:11:43;;;;;;;18.90;10.00;;;;;;;-0.26;89.79;99648.76;105159;1262;99000;-77
2023/03/12 00:14:29;;;;;;;21.90;10.40;;;;;;;-0.26;89.93;99645.98;105241;1261;98542;-77
2023/03/12 00:17:14;;;;;;;16.90;8.30;;;;;;;-0.27;89.92;99641.70;105048;1263;98481;-77
2023/03/12 00:20:00;;;;;;;16.50;10.20;;;;;;;-0.27;90.13;99638.21;105154;1264;103119;-76
2023/03/12 00:22:45;;;;;;;15.90;9.30;;;;;;;-0.28;90.16;99639.71;105085;1264;100112;-77
2023/03/12 00:25:30;;;;;;;19.20;10.90;;;;;;;-0.29;90.28;99639.31;105147;1262;97958;-77
2023/03/12 00:28:16;;;;;;;18.90;10.90;;;;;;;-0.30;90.38;99637.82;105147;1262;97978;-77
2023/03/12 00:31:11;;;;;;;18.90;10.70;;;;;;;-0.30;90.32;99637.65;105064;1262;98183;-78
2023/03/12 00:33:58;;;;;;;18.00;10.30;;;;;;;-0.30;90.40;99637.46;105159;1265;101367;-77
2023/03/12 00:36:43;;;;;;;18.10;10.50;;;;;;;-0.30;90.39;99633.95;105275;1262;100052;-76
2023/03/12 00:39:29;;;;;;;21.00;10.30;;;;;;;-0.32;90.54;99632.50;105261;1260;98435;-79
2023/03/12 00:42:14;;;;;;;20.30;10.80;;;;;;;-0.32;90.56;99627.95;105215;1265;97958;-76
2023/03/12 00:45:00;;;;;;;16.80;10.10;;;;;;;-0.30;90.70;99625.88;105176;1266;97888;-77
2023/03/12 00:47:45;;;;;;;18.70;11.00;;;;;;;-0.30;90.65;99622.55;105194;1262;101340;-77
2023/03/12 00:50:31;;;;;;;16.70;10.70;;;;;;;-0.29;90.74;99625.04;105103;1265;100364;-77
2023/03/12 00:53:16;;;;;;;17.60;10.00;;;;;;;-0.28;90.88;99623.17;105177;1265;98102;-77
2023/03/12 00:56:03;;;;;;;20.70;11.50;;;;;;;-0.26;90.92;99623.92;105042;1265;99086;-76
2023/03/12 00:58:50;;;;;;;27.00;11.10;;;;;;;-0.25;90.98;99616.58;104980;1261;99795;-76
2023/03/12 01:01:35;;;;;;;18.90;10.40;;;;;;;-0.23;90.99;99614.00;105123;1264;103555;-76
2023/03/12 01:04:22;;;;;;;21.00;12.00;;;;;;;-0.22;91.11;99610.92;105162;1264;100341;-77
2023/03/12 01:07:07;;;;;;;21.20;11.80;;;;;;;-0.21;91.26;99609.54;105257;1264;99270;-78
2023/03/12 01:09:53;;;;;;;18.00;9.90;;;;;;;-0.19;91.11;99606.35;105257;1262;97973;-78
2023/03/12 01:12:38;;;;;;;20.30;10.80;;;;;;;-0.18;90.96;99604.36;105206;1262;99657;-77
2023/03/12 01:15:24;;;;;;;21.40;11.80;;;;;;;-0.16;91.19;99605.93;105147;1265;102600;-76
2023/03/12 01:18:10;;;;;;;21.10;11.70;;;;;;;-0.14;91.25;99598.70;105088;1265;99101;-77
2023/03/12 01:20:56;;;;;;;20.40;11.40;;;;;;;-0.12;91.23;99598.35;105148;1269;99001;-76
2023/03/12 01:23:41;;;;;;;16.40;10.10;;;;;;;-0.10;91.22;99597.63;105138;1265;98082;-77
2023/03/12 01:26:27;;;;;;;19.70;11.00;;;;;;;-0.09;91.16;99593.14;105130;1264;99567;-77
2023/03/12 01:29:12;;;;;;;19.20;11.60;;;;;;;-0.07;91.18;99592.04;105172;1261;101377;-77
2023/03/12 01:31:58;;;;;;;15.80;10.20;;;;;;;-0.05;91.25;99587.98;105188;1264;99092;-77
2023/03/12 01:34:44;;;;;;;17.90;10.90;;;;;;;-0.02;91.24;99590.76;105216;1264;99422;-77
2023/03/12 01:37:31;;;;;;;20.00;11.40;;;;;;;-0.01;91.37;99583.77;105196;1266;97848;-77
2023/03/12 01:40:20;;;;;;;18.50;11.20;;;;;;;0.01;91.22;99577.67;105188;1265;98023;-77
2023/03/12 01:43:27;;;;;;;20.50;11.50;;;;;;;0.03;91.28;99580.84;105097;1265;101514;-77
2023/03/12 01:46:25;;;;;;;22.00;10.70;;;;;;;0.06;91.43;99586.19;105181;1262;100365;-77
2023/03/12 01:49:12;;;;;;;21.30;11.70;;;;;;;0.07;91.41;99591.16;105226;1279;97986;-77
2023/03/12 01:52:01;;;;;;;18.40;10.30;;;;;;;0.08;91.26;99590.36;105202;1266;98047;-77
2023/03/12 01:55:00;;;;;;;17.10;9.20;;;;;;;0.08;91.35;99580.49;105145;1265;98579;-77
2023/03/12 01:57:51;;;;;;;15.00;9.30;;;;;;;0.08;91.38;99577.52;105084;1264;102105;-76
2023/03/12 02:00:37;;;;;;;;;;;;;;;0.07;91.33;99579.71;105166;1262;99075;-77
2023/03/12 02:03:22;;;;;;;17.60;10.00;;;;;;;0.05;91.22;99576.09;105154;1264;98954;-78
2023/03/12 02:06:13;;;;;;;16.80;9.00;;;;;;;0.04;91.37;99576.34;105166;1265;98067;-77
2023/03/12 02:09:01;;;;;;;14.70;8.90;;;;;;;0.02;91.40;99581.21;105260;1265;98486;-77
2023/03/12 02:11:48;;;;;;;12.80;7.90;;;;;;;0.02;91.47;99581.80;106018;1261;102697;-77
2023/03/12 02:14:34;;;;;;;15.40;9.30;;;;;;;0.02;91.40;99581.80;105175;1264;100075;-76
2023/03/12 02:17:19;;;;;;;15.10;8.50;;;;;;;0.02;91.24;99579.88;105121;1268;97898;-78
2023/03/12 02:20:23;;;;;;;15.40;8.00;;;;;;;0.01;91.32;99575.17;105107;1262;97995;-77
2023/03/12 02:23:14;;;;;;;16.60;8.30;;;;;;;-0.00;91.32;99581.27;105097;1262;98262;-77
2023/03/12 02:26:02;;;;;;;15.50;8.90;;;;;;;-0.01;91.34;99576.82;105040;1268;102119;-77
2023/03/12 02:28:49;;;;;;;15.30;7.90;;;;;;;-0.02;91.40;99581.03;105061;1262;99259;-78
2023/03/12 02:31:50;;;;;;;13.40;8.00;;;;;;;-0.02;91.27;99585.98;105076;1262;99121;-77
2023/03/12 02:34:36;;;;;;;12.30;7.50;;;;;;;-0.03;91.27;99587.85;105096;1265;98083;-77
2023/03/12 02:37:21;;;;;;;14.10;8.40;;;;;;;-0.04;91.29;99580.73;105096;1261;100264;-77
2023/03/12 02:40:19;;;;;;;13.90;8.30;;;;;;;-0.04;91.28;99586.22;105180;1263;102201;-77
2023/03/12 02:43:08;;;;;;;12.90;7.70;;;;;;;-0.06;91.37;99598.64;105150;1265;99101;-76
2023/03/12 02:45:54;;;;;;;11.80;8.00;;;;;;;-0.07;91.34;99603.10;105089;1262;97988;-76
2023/03/12 02:48:41;;;;;;;13.60;7.70;;;;;;;-0.07;91.31;99595.60;105174;1267;98089;-76
2023/03/12 02:51:26;;;;;;;13.10;7.20;;;;;;;-0.06;91.47;99600.30;105145;1264;98508;-76
2023/03/12 02:54:15;;;;;;;17.20;7.90;;;;;;;-0.06;91.38;99602.38;105220;1265;102644;-77
2023/03/12 02:57:00;;;;;;;11.60;7.40;;;;;;;-0.06;91.29;99601.30;105198;1265;100112;-77
2023/03/12 02:59:47;;;;;;;14.60;7.60;;;;;;;-0.07;91.36;99601.25;105156;1264;98997;-77
2023/03/12 03:02:33;;;;;;;16.10;7.40;;;;;;;-0.07;91.40;99607.56;105167;1266;97900;-76
2023/03/12 03:05:20;;;;;;;16.40;7.30;;;;;;;-0.07;91.50;99613.80;105147;1261;97984;-77
2023/03/12 03:08:07;;;;;;;17.50;7.80;;;;;;;-0.05;91.54;99611.52;105063;1262;101397;-77
2023/03/12 03:10:53;;;;;;;13.10;7.00;;;;;;;-0.03;91.45;99617.45;105120;1268;99632;-77
2023/03/12 03:13:38;;;;;;;13.00;6.70;;;;;;;-0.01;91.59;99618.69;105230;1261;97898;-77
2023/03/12 03:16:24;;;;;;;11.20;6.70;;;;;;;0.00;91.60;99623.86;105238;1265;97994;-77
2023/03/12 03:19:10;;;;;;;13.30;7.10;;;;;;;0.02;91.65;99627.63;105191;1262;97984;-77
2023/03/12 03:21:55;;;;;;;13.30;6.80;;;;;;;0.03;91.69;99631.33;105240;1262;101471;-77
2023/03/12 03:24:41;;;;;;;17.00;7.80;;;;;;;0.04;91.80;99634.63;105177;1265;99716;-77
2023/03/12 03:27:27;;;;;;;12.10;7.10;;;;;;;0.05;91.77;99644.30;105166;1278;98921;-77
2023/03/12 03:30:12;;;;;;;13.70;6.90;;;;;;;0.08;91.83;99641.77;105237;1265;98653;-77
2023/03/12 03:33:00;;;;;;;15.30;7.70;;;;;;;0.09;91.80;99641.80;105210;1264;97901;-77
2023/03/12 03:35:47;;;;;;;13.30;7.90;;;;;;;0.10;91.91;99644.02;105126;1262;101397;-77
2023/03/12 03:38:34;;;;;;;12.50;7.40;;;;;;;0.11;91.84;99640.39;105152;1265;100274;-76
2023/03/12 03:41:20;;;;;;;12.30;7.40;;;;;;;0.13;91.87;99645.45;105203;1265;97987;-75
2023/03/12 03:44:06;;;;;;;10.50;5.60;;;;;;;0.16;92.01;99642.23;105249;1262;97971;-77
2023/03/12 03:46:54;;;;;;;11.00;7.30;;;;;;;0.17;91.96;99642.28;105150;1262;99186;-77
2023/03/12 03:49:40;;;;;;;9.30;6.40;;;;;;;0.19;91.88;99643.90;105234;1262;102632;-77
2023/03/12 03:52:26;;;;;;;12.30;6.50;;;;;;;0.21;91.94;99645.41;105162;1265;99087;-77
2023/03/12 03:55:12;;;;;;;12.20;7.00;;;;;;;0.23;91.94;99639.94;105188;1267;98028;-76
2023/03/12 03:57:58;;;;;;;14.40;6.60;;;;;;;0.26;91.93;99637.09;105095;1265;98093;-78
2023/03/12 04:00:45;;;;;;;9.00;6.00;;;;;;;0.27;91.94;99634.98;105268;1267;98031;-76
2023/03/12 04:03:32;;;;;;;11.30;6.60;;;;;;;0.30;91.94;99638.95;105108;1262;101341;-77
2023/03/12 04:06:17;;;;;;;9.90;6.30;;;;;;;0.32;91.82;99638.76;105230;1262;99110;-77
2023/03/12 04:09:03;;;;;;;11.30;5.80;;;;;;;0.34;91.77;99644.17;105117;1261;99012;-76
2023/03/12 04:11:50;;;;;;;11.90;6.00;;;;;;;0.36;91.84;99652.91;105247;1261;97883;-76
2023/03/12 04:14:39;;;;;;;9.30;5.70;;;;;;;0.39;91.90;99650.05;105229;1266;99627;-77
2023/03/12 04:17:25;;;;;;;11.00;6.10;;;;;;;0.41;91.82;99653.30;105217;1265;102678;-77
2023/03/12 04:20:11;;;;;;;15.10;6.30;;;;;;;0.42;91.73;99660.08;105167;1265;100059;-77
2023/03/12 04:22:57;;;;;;;11.00;6.00;;;;;;;0.42;91.71;99660.76;105179;1262;98699;-77
2023/03/12 04:25:43;;;;;;;12.70;6.60;;;;;;;0.42;91.72;99660.45;105143;1267;97758;-77
2023/03/12 04:28:29;;;;;;;10.80;5.60;;;;;;;0.43;91.77;99657.54;105122;1263;98373;-77
2023/03/12 04:31:14;;;;;;;12.40;6.00;;;;;;;0.45;91.66;99650.88;105126;1262;101325;-77
2023/03/12 04:34:05;;;;;;;11.30;5.60;;;;;;;0.46;91.65;99656.02;105283;1261;99934;-77
2023/03/12 04:36:50;;;;;;;9.50;6.10;;;;;;;0.48;91.74;99655.50;105224;1262;98436;-77
2023/03/12 04:39:36;;;;;;;11.80;6.60;;;;;;;0.49;91.73;99650.64;105192;1264;99171;-77
2023/03/12 04:42:22;;;;;;;10.30;6.60;;;;;;;0.50;91.72;99654.73;105221;1265;98524;-77
2023/03/12 04:45:09;;;;;;;16.90;7.10;;;;;;;0.50;91.62;99655.06;105226;1265;101358;-77
2023/03/12 04:47:57;;;;;;;13.80;6.60;;;;;;;0.51;91.69;99658.52;105137;1267;99238;-78
2023/03/12 04:50:43;;;;;;;17.90;8.80;;;;;;;0.52;91.78;99658.96;105185;1264;98848;-78
2023/03/12 04:53:29;;;;;;;14.40;6.90;;;;;;;0.53;91.85;99654.08;105208;1262;97871;-77
2023/03/12 04:56:16;;;;;;;12.20;6.00;;;;;;;0.55;91.95;99655.98;105251;1262;98486;-77
2023/03/12 04:59:02;;;;;;;10.20;5.70;;;;;;;0.57;91.83;99659.71;105427;1262;102477;-76
2023/03/12 05:01:48;;;;;;;10.40;5.90;;;;;;;0.57;91.76;99659.34;105153;1262;99170;-77
2023/03/12 05:04:37;;;;;;;10.00;6.40;;;;;;;0.58;91.79;99658.89;105052;1268;98932;-77
2023/03/12 05:07:23;;;;;;;10.50;6.20;;;;;;;0.59;91.69;99663.34;105168;1265;97971;-77
2023/03/12 05:10:09;;;;;;;9.40;6.00;;;;;;;0.60;91.70;99662.86;105204;1262;98499;-77
2023/03/12 05:12:55;;;;;;;10.00;6.70;;;;;;;0.61;91.71;99665.28;105209;1265;102078;-76
2023/03/12 05:15:41;;;;;;;9.70;6.50;;;;;;;0.61;91.62;99666.89;105145;1262;99093;-76
2023/03/12 05:18:26;;;;;;;7.80;5.80;;;;;;;0.62;91.48;99675.52;105152;1268;100149;-77
2023/03/12 05:21:15;;;;;;;11.90;6.30;;;;;;;0.63;91.64;99677.73;105189;1262;98376;-76
2023/03/12 05:24:01;;;;;;;10.70;5.30;;;;;;;0.64;91.64;99681.69;105300;1262;98494;-77
2023/03/12 05:26:47;;;;;;;12.70;5.60;;;;;;;0.64;91.57;99685.91;105183;1262;101920;-77
2023/03/12 05:29:38;;;;;;;10.60;5.20;;;;;;;0.65;91.60;99685.81;105290;1262;100323;-77
2023/03/12 05:32:23;;;;;;;10.60;5.40;;;;;;;0.66;91.53;99683.19;105147;1267;98426;-77
2023/03/12 05:35:09;;;;;;;7.00;5.20;;;;;;;0.67;91.29;99684.86;105162;1262;98972;-77
2023/03/12 05:37:55;;;;;;;11.20;5.40;;;;;;;0.67;91.31;99685.94;104956;1264;98953;-77
2023/03/12 05:40:41;;;;;;;9.00;5.20;;;;;;;0.68;91.40;99686.17;105018;1264;102736;-77
2023/03/12 05:43:27;;;;;;;9.20;5.40;;;;;;;0.69;91.38;99697.02;105163;1262;99084;-77
2023/03/12 05:46:14;;;;;;;10.10;5.00;;;;;;;0.70;91.31;99702.39;105191;1262;97946;-76
2023/03/12 05:48:59;;;;;;;12.00;5.60;;;;;;;0.71;91.29;99705.21;105212;1262;97959;-76
2023/03/12 05:51:49;;;;;;;9.20;5.30;;;;;;;0.73;91.18;99706.48;105189;1262;98144;-76
2023/03/12 05:54:35;;;;;;;9.80;5.00;;;;;;;0.73;91.33;99715.21;105594;1265;101402;-76
2023/03/12 05:57:22;;;;;;;10.60;5.10;;;;;;;0.75;91.25;99716.30;105197;1263;99363;-77
2023/03/12 06:00:11;;;;;;;7.30;5.10;;;;;;;0.74;91.21;99715.78;105190;1262;98719;-76
2023/03/12 06:03:05;;;;;;;7.30;5.30;;;;;;;0.73;91.15;99717.85;104989;1262;97882;-77
2023/03/12 06:05:53;;;;;;;13.50;5.80;;;;;;;0.74;91.11;99726.75;105153;1265;98501;-76
2023/03/12 06:08:41;;;;;;;9.80;5.70;;;;;;;0.77;91.08;99734.19;105116;1262;102595;-77
2023/03/12 06:11:28;;;;;;;7.70;4.80;;;;;;;0.82;91.15;99733.20;105197;1262;100738;-77
2023/03/12 06:14:14;;;;;;;8.90;5.50;;;;;;;0.88;91.28;99738.23;105177;1262;98593;-77
2023/03/12 06:16:59;;;;;;;6.90;5.10;;;;;;;0.93;91.33;99736.89;105048;1265;98791;-77
2023/03/12 06:19:44;;;;;;;7.20;4.40;;;;;;;0.96;91.12;99743.98;105232;1262;98726;-77
2023/03/12 06:22:30;;;;;;;9.60;4.90;;;;;;;0.97;90.95;99747.05;105181;1262;101389;-77
2023/03/12 06:25:16;;;;;;;8.90;4.90;;;;;;;0.97;90.96;99746.87;105249;1262;100563;-77
2023/03/12 06:28:02;;;;;;;10.40;5.60;;;;;;;0.98;91.17;99752.71;105250;1265;97963;-77
2023/03/12 06:30:48;;;;;;;8.20;5.00;;;;;;;0.99;91.13;99757.42;104945;1262;97870;-76
2023/03/12 06:33:34;;;;;;;8.60;5.30;;;;;;;0.99;91.26;99758.45;105154;1262;99207;-77
2023/03/12 06:36:21;;;;;;;6.20;4.60;;;;;;;1.01;91.33;99761.39;105206;1267;101348;-77
2023/03/12 06:39:08;;;;;;;9.80;5.30;;;;;;;1.03;91.33;99766.82;105159;1265;99342;-77
2023/03/12 06:41:54;;;;;;;8.40;5.00;;;;;;;1.05;91.33;99771.30;105081;1262;98712;-77
2023/03/12 06:44:40;;;;;;;7.30;5.40;;;;;;;1.04;91.44;99772.35;104947;1264;97977;-78
2023/03/12 06:47:25;;;;;;;9.70;5.30;;;;;;;1.05;91.49;99774.95;105253;1262;98509;-77
2023/03/12 06:50:11;;;;;;;11.50;4.60;;;;;;;1.06;91.68;99782.38;105241;1263;102393;-78
2023/03/12 06:52:56;;;;;;;10.00;4.90;;;;;;;1.08;91.54;99779.58;105257;1263;99314;-78
2023/03/12 06:55:43;;;;;;;10.00;5.20;;;;;;;1.12;91.64;99784.27;105130;1262;97876;-76
2023/03/12 06:58:29;;;;;;;8.80;4.90;;;;;;;1.18;91.47;99790.16;105064;1265;98056;-77
2023/03/12 07:01:15;;;;;;;9.60;5.00;;;;;;;1.25;91.26;99797.55;105181;1262;97889;-77
2023/03/12 07:04:00;;;;;;;8.80;4.40;;;;;;;1.30;90.86;99801.49;105153;1264;101213;-77
2023/03/12 07:06:50;;;;;;;8.60;5.30;;;;;;;1.36;90.61;99797.15;104819;1262;100518;-77
2023/03/12 07:09:36;;;;;;;7.60;4.70;;;;;;;1.45;90.58;99801.58;104837;1262;99055;-78
2023/03/12 07:12:22;;;;;;;10.10;4.70;;;;;;;1.54;90.28;99804.96;105083;1261;98492;-76
2023/03/12 07:15:08;;;;;;;15.10;10.80;;;;;;;1.62;90.11;99807.33;105296;1265;98475;-81
2023/03/12 07:17:54;;;;;;;10.70;8.80;;;;;;;1.67;89.43;99810.02;106061;1265;102339;-82
2023/03/12 07:20:43;;;;;;;7.70;5.00;;;;;;;1.69;88.89;99810.52;106172;1261;99930;-85
2023/03/12 07:23:29;;;;;;;7.70;4.60;;;;;;;1.71;88.78;99813.29;106354;1267;98952;-86
2023/03/12 07:26:16;;;;;;;6.20;4.80;;;;;;;1.76;88.64;99816.00;106013;1268;97930;-86
2023/03/12 07:29:03;;;;;;;6.60;4.30;;;;;;;1.81;88.56;99819.33;105303;1268;98528;-74
2023/03/12 07:31:48;;;;;;;5.90;4.00;;;;;;;1.84;88.24;99823.42;105185;1265;103150;-76
2023/03/12 07:34:34;;;;;;;12.30;5.00;;;;;;;1.86;87.89;99825.70;104972;1262;100470;-75
2023/03/12 07:37:20;;;;;;;7.90;4.30;;;;;;;1.87;87.10;99827.90;104778;1268;99831;-76
2023/03/12 07:40:06;;;;;;;6.10;3.50;;;;;;;1.90;87.07;99831.78;104846;1265;99119;-75
2023/03/12 07:42:52;;;;;;;6.70;4.10;;;;;;;1.94;87.04;99833.16;104831;1265;97987;-74
2023/03/12 07:45:38;;;;;;;8.90;3.20;;;;;;;1.95;86.51;99834.68;104773;1266;101568;-75
2023/03/12 07:48:24;;;;;;;8.30;4.10;;;;;;;1.94;86.35;99839.50;105034;1265;99649;-75
2023/03/12 07:51:10;;;;;;;7.90;3.80;;;;;;;1.94;86.29;99845.64;104818;1265;99082;-74
2023/03/12 07:53:56;;;;;;;11.10;4.40;;;;;;;1.93;85.85;99844.19;105152;1268;97990;-75
2023/03/12 07:56:42;;;;;;;13.40;5.40;;;;;;;1.92;86.10;99850.14;105037;1265;97935;-74
2023/03/12 07:59:27;;;;;;;9.50;4.80;;;;;;;1.91;86.41;99860.38;105055;1263;101874;-74
2023/03/12 08:02:13;;;;;;;7.50;5.00;;;;;;;1.89;85.96;99863.45;104809;1265;100359;-75
2023/03/12 08:04:59;;;;;;;18.30;15.80;;;;;;;1.85;85.75;99867.23;104840;1262;98564;-74
2023/03/12 08:07:45;;;;;;;8.50;5.20;;;;;;;1.83;85.80;99868.47;104787;1267;98057;-74
2023/03/12 08:10:30;;;;;;;8.20;4.90;;;;;;;1.84;85.84;99876.94;105193;1265;99262;-76
2023/03/12 08:13:16;;;;;;;10.90;7.20;;;;;;;1.85;85.30;99878.09;105092;1263;101424;-74
2023/03/12 08:16:03;;;;;;;8.10;4.70;;;;;;;1.83;84.69;99879.69;104902;1264;99154;-74
2023/03/12 08:18:48;;;;;;;5.00;4.10;;;;;;;1.85;84.98;99887.04;104728;1265;99155;-74
2023/03/12 08:21:34;;;;;;;9.30;5.50;;;;;;;1.89;85.03;99883.52;104798;1261;97967;-74
2023/03/12 08:24:21;;;;;;;9.40;3.80;;;;;;;1.92;84.72;99891.19;104906;1265;97898;-74
2023/03/12 08:27:07;;;;;;;6.10;4.10;;;;;;;1.93;84.13;99893.66;104810;1265;103249;-74
2023/03/12 08:29:52;;;;;;;5.30;2.60;;;;;;;1.98;84.00;99891.23;104799;1262;99728;-74
2023/03/12 08:32:38;;;;;;;5.00;2.70;;;;;;;2.09;84.04;99896.83;104997;1263;99233;-75
2023/03/12 08:35:24;;;;;;;5.60;3.10;;;;;;;2.23;83.73;99900.55;104801;1265;99513;-80
2023/03/12 08:38:10;;;;;;;4.50;2.50;;;;;;;2.30;82.61;99900.03;105135;1265;97906;-74
2023/03/12 08:40:57;;;;;;;5.50;2.10;;;;;;;2.34;82.30;99902.95;105700;1265;102609;-79
2023/03/12 08:43:43;;;;;;;7.00;2.70;;;;;;;2.40;81.99;99898.48;105441;1263;100892;-80
2023/03/12 08:46:30;;;;;;;6.50;2.10;;;;;;;2.45;81.03;99904.88;106143;1261;99323;-81
2023/03/12 08:49:17;;;;;;;6.70;2.90;;;;;;;2.46;79.96;99895.13;106123;1263;97968;-85
2023/03/12 08:52:04;;;;;;;9.80;4.80;;;;;;;2.44;78.80;99899.58;106040;1262;97854;-79
2023/03/12 08:54:50;;;;;;;6.50;3.40;;;;;;;2.40;78.45;99898.85;105480;1262;102695;-82
2023/03/12 08:57:36;;;;;;;12.40;5.50;;;;;;;2.39;78.45;99907.07;106006;1267;99093;-80
2023/03/12 09:00:22;;;;;;;11.50;4.20;;;;;;;2.43;78.53;99907.39;105935;1266;99420;-80
2023/03/12 09:03:33;;;;;;;32.60;11.40;;;;;;;2.48;78.30;99908.69;106856;1257;98014;31
2023/03/12 09:06:19;;;;;;;52.30;17.90;;;;;;;2.55;78.51;99911.63;106152;1263;98429;-82
2023/03/12 09:09:07;;;;;;;14.80;6.00;;;;;;;2.61;78.03;99907.84;105978;1264;101211;-81
2023/03/12 09:11:54;;;;;;;6.70;3.40;;;;;;;2.67;77.07;99909.05;105787;1277;100331;-80
2023/03/12 09:14:39;;;;;;;3.40;2.00;;;;;;;2.68;76.88;99912.80;105902;1264;97910;-81
2023/03/12 09:17:29;;;;;;;8.50;2.40;;;;;;;2.71;76.76;99916.52;105753;1263;97966;-82
2023/03/12 09:20:15;;;;;;;7.10;3.30;;;;;;;2.79;76.77;99919.98;105801;1264;98012;-80
2023/03/12 09:23:00;;;;;;;5.10;2.60;;;;;;;2.91;76.96;99915.91;105675;1264;101337;-84
2023/03/12 09:25:47;;;;;;;3.70;2.10;;;;;;;3.02;76.36;99916.88;105668;1264;100033;-80
2023/03/12 09:28:33;;;;;;;4.00;2.10;;;;;;;3.05;75.35;99922.00;105970;1267;98969;-81
2023/03/12 09:31:18;;;;;;;4.30;1.60;;;;;;;3.03;74.69;99927.48;105987;1264;97959;-82
2023/03/12 09:34:04;;;;;;;3.10;1.90;;;;;;;3.09;74.83;99923.91;105810;1269;97832;-81
2023/03/12 09:36:51;;;;;;;3.90;1.70;;;;;;;3.19;74.67;99925.17;105957;1264;103137;-83
2023/03/12 09:39:36;;;;;;;7.50;2.70;;;;;;;3.27;74.01;99933.52;105906;1264;100409;-83
2023/03/12 09:42:51;;;;;;;4.80;1.80;;;;;;;3.28;73.55;99939.59;105768;1264;98029;-84
2023/03/12 09:45:43;;;;;;;4.00;1.90;;;;;;;3.21;73.45;99948.33;105856;1269;97978;-83
2023/03/12 09:48:33;;;;;;;5.50;1.80;;;;;;;3.17;73.12;99954.36;105476;1267;98095;-77
2023/03/12 09:51:27;;;;;;;10.90;5.10;;;;;;;3.12;72.87;99952.30;105084;1275;101378;-76
2023/03/12 09:54:57;;;;;;;6.70;2.40;;;;;;;3.10;72.98;99960.16;105084;1267;100151;-75
2023/03/12 09:57:45;;;;;;;4.40;2.40;;;;;;;3.08;72.84;99959.65;105113;1264;97977;-76
2023/03/12 10:00:33;;;;;;;18.10;13.30;;;;;;;3.12;73.16;99958.17;105086;1267;99264;-76
2023/03/12 10:03:51;;;;;;;11.00;6.30;;;;;;;3.22;73.40;99956.81;105117;1264;98406;-75
2023/03/12 10:06:47;;;;;;;7.80;4.60;;;;;;;3.32;73.70;99956.17;105144;1266;102629;-75
2023/03/12 10:10:07;;;;;;;6.80;3.10;;;;;;;3.41;72.84;99965.73;106662;1265;97967;-77
2023/03/12 10:13:03;;;;;;;7.30;4.30;;;;;;;3.49;72.49;99971.33;106162;1262;98980;-75
2023/03/12 10:16:04;;;;;;;10.90;5.10;;;;;;;3.52;72.01;99967.29;105139;1268;98135;-77
2023/03/12 10:19:14;;;;;;;6.40;2.50;;;;;;;3.48;71.44;99976.75;105153;1262;98457;-75
2023/03/12 10:22:07;;;;;;;5.00;2.40;;;;;;;3.42;71.14;99974.14;104857;1267;101330;-76
2023/03/12 10:25:22;;;;;;;6.40;3.00;;;;;;;3.45;71.06;99975.05;104832;1262;100150;-76
2023/03/12 10:28:41;;;;;;;6.40;2.20;;;;;;;3.44;70.31;99978.19;105020;1263;99129;-76
2023/03/12 10:31:47;;;;;;;6.80;1.80;;;;;;;3.34;69.92;99982.59;104924;1262;98555;-76
2023/03/12 10:34:41;;;;;;;5.30;1.90;;;;;;;3.30;69.90;99983.02;105738;1267;98499;-75
2023/03/12 10:37:45;;;;;;;7.80;2.70;;;;;;;3.40;70.76;99981.23;105064;1263;102543;-76
2023/03/12 10:40:34;;;;;;;32.50;14.50;;;;;;;3.54;70.93;99985.65;105156;1266;99068;-76
2023/03/12 10:43:19;;;;;;;6.40;2.90;;;;;;;3.61;70.35;99983.48;105079;1262;99571;-76
2023/03/12 10:46:33;;;;;;;8.50;3.80;;;;;;;3.64;69.74;99986.39;106686;1260;97996;-76
2023/03/12 10:49:22;;;;;;;7.40;3.70;;;;;;;3.74;69.28;99988.85;106282;1260;96083;-79
2023/03/12 10:52:16;;;;;;;4.20;2.00;;;;;;;3.75;67.97;99992.06;106039;1260;102599;-83
2023/03/12 10:55:13;;;;;;;3.50;1.70;;;;;;;3.73;67.99;99997.92;105803;1260;100702;-85
2023/03/12 10:57:59;;;;;;;5.00;2.00;;;;;;;3.72;67.69;99993.61;105609;1265;97941;-85
2023/03/12 11:00:57;;;;;;;6.30;1.80;;;;;;;3.72;67.35;99997.84;105122;1260;98591;-84
2023/03/12 11:03:44;;;;;;;7.70;3.50;;;;;;;3.72;66.80;100001.20;105439;1265;98672;-77
2023/03/12 11:06:29;;;;;;;6.50;3.10;;;;;;;3.73;67.17;100001.05;105261;1264;101373;-77
2023/03/12 11:09:19;;;;;;;11.80;4.20;;;;;;;3.81;67.71;100006.77;104981;1259;100330;-77
2023/03/12 11:12:29;;;;;;;9.10;3.10;;;;;;;3.92;67.59;100009.55;105155;1264;99282;-77
2023/03/12 11:15:23;;;;;;;6.80;2.70;;;;;;;4.01;67.15;100007.41;105163;1265;97999;-77
2023/03/12 11:18:31;;;;;;;6.60;2.90;;;;;;;4.07;66.96;100016.12;105988;1259;97826;-78
2023/03/12 11:21:19;;;;;;;5.10;2.10;;;;;;;4.06;66.25;100016.89;105823;1265;101356;-84
2023/03/12 11:24:09;;;;;;;6.30;2.20;;;;;;;4.00;65.41;100023.59;105650;1265;100344;-79
2023/03/12 11:27:25;;;;;;;7.00;2.80;;;;;;;3.94;65.31;100020.88;106158;1261;98339;-79
2023/03/12 11:30:15;;;;;;;3.20;1.30;;;;;;;3.94;65.64;100023.85;105394;1265;98038;-76
2023/03/12 11:33:01;;;;;;;3.50;1.60;;;;;;;3.93;65.51;100024.45;105156;1261;98467;-76
2023/03/12 11:36:05;;;;;;;5.70;2.80;;;;;;;3.92;64.88;100022.85;105107;1265;101337;-76
2023/03/12 11:39:19;;;;;;;7.50;2.90;;;;;;;3.88;64.40;100028.49;105244;1261;100333;-83
2023/03/12 11:42:14;;;;;;;7.30;2.30;;;;;;;3.87;64.37;100026.34;105565;1262;99083;-77
2023/03/12 11:45:17;;;;;;;4.90;1.70;;;;;;;3.92;64.47;100028.48;105380;1261;98061;-77
2023/03/12 11:48:23;;;;;;;7.10;2.20;;;;;;;4.04;64.60;100024.40;105116;1267;97894;-78
2023/03/12 11:51:30;;;;;;;3.90;2.60;;;;;;;4.09;64.09;100028.42;105269;1262;102718;-76
2023/03/12 11:54:43;;;;;;;6.20;3.00;;;;;;;4.07;63.93;100023.33;106025;1262;99161;-85
2023/03/12 11:57:58;;;;;;;4.00;1.70;;;;;;;4.14;64.49;100031.42;105931;1265;98216;-83
2023/03/12 12:01:26;;;;;;;4.30;2.10;;;;;;;4.17;63.60;100035.69;106048;1262;97931;-81
2023/03/12 12:04:36;;;;;;;5.20;1.80;;;;;;;4.15;63.18;100037.92;105877;1268;98391;-78
2023/03/12 12:07:53;;;;;;;4.40;1.90;;;;;;;4.14;63.30;100033.66;106084;1262;101489;-80
2023/03/12 12:11:02;;;;;;;6.70;2.50;;;;;;;4.19;63.26;100024.89;105523;1262;100352;-80
2023/03/12 12:14:12;;;;;;;4.50;2.60;;;;;;;4.29;63.72;100033.02;105754;1262;98769;-78
2023/03/12 12:17:30;;;;;;;7.20;3.90;;;;;;;4.31;63.17;100037.63;105522;1265;99171;-80
2023/03/12 12:20:24;;;;;;;6.30;2.20;;;;;;;4.24;62.40;100039.55;106566;1262;98415;-80
2023/03/12 12:23:21;;;;;;;8.60;2.30;;;;;;;4.16;61.79;100046.15;106554;1262;101336;-79
2023/03/12 12:26:09;;;;;;;12.50;3.20;;;;;;;4.07;61.43;100045.21;106046;1262;100456;-79
2023/03/12 12:29:13;;;;;;;2.40;1.80;;;;;;;4.05;61.70;100047.55;106182;1266;98589;-81
2023/03/12 12:32:02;;;;;;;5.30;2.30;;;;;;;4.11;62.24;100048.02;105320;1267;98844;-81
2023/03/12 12:35:26;;;;;;;9.30;3.10;;;;;;;4.24;62.24;100052.35;106482;1267;96699;-80
2023/03/12 12:38:34;;;;;;;4.00;1.90;;;;;;;4.35;61.39;100057.69;106231;1264;102604;-80
2023/03/12 12:41:25;;;;;;;6.60;2.50;;;;;;;4.32;60.83;100063.27;105657;1267;99155;-82
2023/03/12 12:44:16;;;;;;;4.80;2.20;;;;;;;4.35;60.75;100066.81;106273;1262;97959;-79
2023/03/12 12:47:05;;;;;;;6.50;2.70;;;;;;;4.44;60.47;100060.95;106248;1265;97968;-79
2023/03/12 12:49:58;;;;;;;4.60;1.90;;;;;;;4.48;60.43;100071.80;105823;1262;98790;-79
2023/03/12 12:52:52;;;;;;;5.60;2.10;;;;;;;4.43;60.05;100072.94;106069;1262;101975;-83
2023/03/12 12:55:48;;;;;;;4.60;2.40;;;;;;;4.39;59.90;100078.46;105992;1265;99097;-85
2023/03/12 12:58:52;;;;;;;4.80;1.70;;;;;;;4.33;59.32;100083.47;106081;1260;97895;-81
2023/03/12 13:01:38;;;;;;;3.10;1.80;;;;;;;4.30;59.68;100090.88;106366;1266;97917;-78
2023/03/12 13:04:36;;;;;;;4.40;1.80;;;;;;;4.32;60.03;100092.14;105743;1262;98428;-79
2023/03/12 13:07:21;;;;;;;6.90;1.90;;;;;;;4.40;60.27;100091.63;105824;1262;101982;-78